Beland, Oklahoma
Current Conditions -  °F | °C
As of 2:53 PM on Sunday 23 Nov 2014 (Local Time) from KMKO Reporting Station
Broken Clouds Broken Clouds  
Wind Chill: 67°   Ceiling: 6000
Heat Index: 67°   Visibility: 10mi
Dew Point: 53°   Wind: 13mph
Humidity: 61%   Direction: 210°SSW
Pressure: 29.3"   Gusts: NA
Location:  35.6818°N, 95.3578°W
Report Text: KMKO 232053Z AUTO 21011KT 10SM FEW038 SCT049 BKN060 19/12 A2930 RMK AO2 SLP918 T01940117 55022
Loading
Personal Weather Stations






























Interactive Weather Map New forecast layout! Learn more

10-Day Weather Forecast

Advertisements
Track Severe Weather on mobile